Time;durP1;ratioP1;P1;durP2;ratioP2;P2;SDS_P1;SDS_P2;PMS_P1;PMS_P2;Temp;Humidity;BMP_temperature;BMP_pressure;BME280_temperature;BME280_humidity;BME280_pressure;Samples;Min_cycle;Max_cycle;Signal;HPM_P1;HPM_P2
2021/07/16 00:00:20;;;;;;;5.97;4.10;;;;;;;17.12;93.33;93088.23;1787761;77;21540;-80
2021/07/16 00:02:49;;;;;;;5.85;4.22;;;;;;;17.13;92.74;93084.88;1762389;80;21126;-81
2021/07/16 00:05:16;;;;;;;6.40;4.10;;;;;;;17.18;93.16;93094.68;1772921;80;21076;-80
2021/07/16 00:07:44;;;;;;;5.35;3.80;;;;;;;17.27;93.48;93098.73;1764020;81;21607;-81
2021/07/16 00:10:19;;;;;;;9.58;4.83;;;;;;;17.32;93.01;93103.05;1761572;80;21126;-81
2021/07/16 00:12:47;;;;;;;6.62;4.75;;;;;;;17.34;92.92;93105.34;1749364;81;21164;-81
2021/07/16 00:15:16;;;;;;;9.90;4.90;;;;;;;17.36;93.15;93117.42;1816316;77;20910;-82
2021/07/16 00:17:43;;;;;;;6.42;4.67;;;;;;;17.40;93.26;93117.30;1799409;77;21540;-80
2021/07/16 00:20:10;;;;;;;5.03;4.12;;;;;;;17.45;93.04;93110.65;1771291;79;21447;-81
2021/07/16 00:22:37;;;;;;;7.70;4.10;;;;;;;17.48;92.61;93111.72;1781059;77;21809;-81
2021/07/16 00:25:05;;;;;;;7.47;4.25;;;;;;;17.45;92.73;93119.47;1840000;77;20997;-81
2021/07/16 00:27:31;;;;;;;8.60;5.08;;;;;;;17.39;92.84;93122.65;1811013;77;21034;-80
2021/07/16 00:29:59;;;;;;;6.25;3.90;;;;;;;17.38;92.64;93115.62;1825784;76;21001;-82
2021/07/16 00:32:26;;;;;;;7.03;3.67;;;;;;;17.37;92.85;93115.44;1768195;80;21083;-80
2021/07/16 00:34:53;;;;;;;7.35;3.77;;;;;;;17.32;92.54;93103.05;1788532;76;21298;-82
2021/07/16 00:37:20;;;;;;;9.23;4.60;;;;;;;17.35;92.83;93106.89;1841118;77;21017;-82
2021/07/16 00:39:47;;;;;;;8.08;5.05;;;;;;;17.38;92.37;93119.14;1786352;77;21592;-81
2021/07/16 00:42:13;;;;;;;6.28;4.40;;;;;;;17.42;92.57;93122.53;1830586;77;21460;-82
2021/07/16 00:44:41;;;;;;;8.30;4.22;;;;;;;17.40;92.43;93116.70;1825924;77;21066;-83
2021/07/16 00:47:08;;;;;;;7.05;3.75;;;;;;;17.26;92.89;93117.18;1815384;77;21091;-79
2021/07/16 00:49:34;;;;;;;9.10;4.60;;;;;;;17.11;92.41;93116.92;1843285;77;21005;-82
2021/07/16 00:52:02;;;;;;;7.67;3.98;;;;;;;17.07;93.21;93123.11;1807466;77;21081;-80
2021/07/16 00:54:29;;;;;;;5.37;3.60;;;;;;;17.11;93.55;93118.30;1833108;77;20990;-81
2021/07/16 00:56:56;;;;;;;5.67;4.20;;;;;;;17.15;93.35;93125.02;1808266;77;21558;-82
2021/07/16 00:59:25;;;;;;;6.70;4.05;;;;;;;17.18;93.12;93128.25;1777580;80;21056;-80
2021/07/16 01:01:52;;;;;;;7.03;4.50;;;;;;;17.18;93.20;93116.66;1760797;76;21065;-79
2021/07/16 01:04:19;;;;;;;8.30;4.60;;;;;;;17.12;93.55;93118.45;1841242;77;21582;-83
2021/07/16 01:06:47;;;;;;;4.78;4.05;;;;;;;17.13;93.79;93124.09;1789708;79;21061;-80
2021/07/16 01:09:17;;;;;;;8.65;4.10;;;;;;;17.17;93.75;93109.63;1787722;79;21170;-80
2021/07/16 01:11:46;;;;;;;5.25;4.00;;;;;;;17.14;93.53;93112.50;1772639;80;21171;-79
2021/07/16 01:14:14;;;;;;;5.15;4.00;;;;;;;17.11;94.02;93107.31;1789795;76;21036;-81
2021/07/16 01:16:42;;;;;;;6.17;4.60;;;;;;;17.07;94.11;93109.38;1817659;77;20996;-80
2021/07/16 01:19:11;;;;;;;4.03;3.62;;;;;;;17.09;94.06;93106.97;1807366;77;21654;-78
2021/07/16 01:21:37;;;;;;;6.37;3.70;;;;;;;17.13;94.03;93104.11;1832494;77;21064;-81
2021/07/16 01:24:07;;;;;;;6.28;4.53;;;;;;;17.12;93.75;93110.21;1823194;77;21137;-81
2021/07/16 01:26:36;;;;;;;6.87;3.77;;;;;;;17.10;93.81;93106.36;1798063;79;20929;-80
2021/07/16 01:29:04;;;;;;;4.37;3.27;;;;;;;17.08;93.78;93101.94;1782654;76;21076;-80
2021/07/16 01:31:31;;;;;;;5.35;3.47;;;;;;;17.01;93.86;93100.80;1841988;77;20993;-79
2021/07/16 01:33:57;;;;;;;3.85;3.33;;;;;;;16.87;94.30;93097.30;1787422;77;21099;-78
2021/07/16 01:36:24;;;;;;;4.05;3.30;;;;;;;16.80;95.02;93102.26;1817054;77;21064;-79
2021/07/16 01:38:50;;;;;;;6.85;3.70;;;;;;;16.71;95.61;93098.19;1827404;77;21066;-80
2021/07/16 01:41:17;;;;;;;3.50;3.20;;;;;;;16.65;96.36;93099.17;1811126;77;21108;-81
2021/07/16 01:43:44;;;;;;;8.70;4.17;;;;;;;16.68;96.78;93105.16;1840964;77;21029;-82
2021/07/16 01:46:10;;;;;;;5.55;3.60;;;;;;;16.69;96.56;93101.96;1783241;77;21307;-77
2021/07/16 01:48:38;;;;;;;4.05;3.65;;;;;;;16.71;96.88;93102.91;1821630;77;21025;-80
2021/07/16 01:51:04;;;;;;;4.10;3.55;;;;;;;16.62;96.91;93109.05;1824144;77;21209;-81
2021/07/16 01:53:36;;;;;;;5.10;3.35;;;;;;;16.57;97.40;93108.24;1799858;79;21598;-80
2021/07/16 01:56:03;;;;;;;5.85;3.80;;;;;;;16.50;97.61;93107.09;1777337;80;21056;-80
2021/07/16 01:58:30;;;;;;;4.22;3.45;;;;;;;16.43;98.04;93105.33;1777352;80;21072;-79
2021/07/16 02:00:57;;;;;;;4.28;3.40;;;;;;;16.37;98.40;93106.34;1777196;79;21280;-83
2021/07/16 02:03:23;;;;;;;7.03;4.08;;;;;;;16.33;98.44;93114.68;1813348;76;21060;-80
2021/07/16 02:05:50;;;;;;;5.35;4.10;;;;;;;16.33;98.30;93113.92;1820481;77;21107;-80
2021/07/16 02:08:22;;;;;;;6.03;4.50;;;;;;;16.32;98.00;93105.50;1777416;79;21061;-81
2021/07/16 02:10:54;;;;;;;5.95;4.12;;;;;;;16.34;97.99;93107.98;1777186;80;21072;-79
2021/07/16 02:13:21;;;;;;;3.83;3.42;;;;;;;16.39;98.06;93111.53;1836742;76;21068;-79
2021/07/16 02:15:49;;;;;;;6.22;3.35;;;;;;;16.44;97.88;93110.24;1796862;77;21084;-79
2021/07/16 02:18:18;;;;;;;5.42;3.40;;;;;;;16.33;97.83;93111.94;1807810;76;21017;-81
2021/07/16 02:20:44;;;;;;;5.08;3.55;;;;;;;16.28;97.86;93106.98;1826381;77;21060;-81
2021/07/16 02:23:18;;;;;;;3.98;3.65;;;;;;;16.24;97.93;93107.09;1779033;76;21037;-79
2021/07/16 02:25:45;;;;;;;5.15;3.22;;;;;;;16.24;98.13;93107.09;1840367;77;21246;-80
2021/07/16 02:28:27;;;;;;;3.92;3.20;;;;;;;16.26;97.67;93106.66;1813039;77;21039;-79
2021/07/16 02:30:54;;;;;;;3.83;2.60;;;;;;;16.26;97.66;93106.06;1788143;79;21087;-78
2021/07/16 02:33:21;;;;;;;7.28;3.87;;;;;;;16.23;97.59;93096.56;1806713;77;20993;-78
2021/07/16 02:35:48;;;;;;;6.05;3.75;;;;;;;16.23;97.80;93108.91;1827197;77;21743;-80
2021/07/16 02:38:17;;;;;;;6.62;4.12;;;;;;;16.23;97.23;93096.56;1778070;77;21035;-81
2021/07/16 02:40:43;;;;;;;5.30;4.25;;;;;;;16.21;97.24;93105.83;1841341;77;20970;-79
2021/07/16 02:43:10;;;;;;;6.20;4.12;;;;;;;16.18;96.75;93112.21;1815065;77;21030;-82
2021/07/16 02:45:37;;;;;;;3.30;3.00;;;;;;;16.06;96.48;93115.69;1824734;76;21013;-78
2021/07/16 02:48:04;;;;;;;3.20;2.90;;;;;;;15.95;97.00;93114.05;1831302;77;21086;-80
2021/07/16 02:50:37;;;;;;;3.50;3.20;;;;;;;15.87;97.67;93118.20;1808524;76;21149;-79
2021/07/16 02:53:05;;;;;;;7.05;3.40;;;;;;;15.83;98.16;93112.03;1841062;77;21009;-81
2021/07/16 02:55:32;;;;;;;8.58;3.65;;;;;;;15.74;98.40;93119.53;1809332;77;21576;-77
2021/07/16 02:57:59;;;;;;;4.00;3.35;;;;;;;15.66;99.15;93120.94;1829128;77;21002;-79
2021/07/16 03:00:29;;;;;;;5.30;3.52;;;;;;;15.65;99.52;93117.25;1827369;77;21030;-80
2021/07/16 03:02:57;;;;;;;4.67;3.50;;;;;;;15.56;100.00;93120.59;1801230;79;21048;-81
2021/07/16 03:05:31;;;;;;;5.53;3.83;;;;;;;15.44;100.00;93114.48;1777528;80;21071;-81
2021/07/16 03:07:59;;;;;;;6.00;3.70;;;;;;;15.38;100.00;93112.86;1777853;80;21060;-81
2021/07/16 03:10:31;;;;;;;4.22;3.90;;;;;;;15.37;100.00;93105.84;1777420;79;21070;-80
2021/07/16 03:13:01;;;;;;;4.30;3.90;;;;;;;15.39;100.00;93109.54;1816902;77;21560;-82
2021/07/16 03:15:29;;;;;;;9.35;6.83;;;;;;;15.50;100.00;93119.61;1827042;77;21054;-79
2021/07/16 03:17:57;;;;;;;6.85;5.35;;;;;;;15.60;100.00;93117.16;1801259;79;21096;-78
2021/07/16 03:22:59;;;;;;;4.20;3.75;;;;;;;15.68;100.00;93125.40;1777942;80;21026;-79
2021/07/16 03:25:27;;;;;;;4.70;3.70;;;;;;;15.73;100.00;93128.97;1777076;80;21585;-79
2021/07/16 03:27:54;;;;;;;6.22;3.90;;;;;;;15.78;100.00;93117.45;1811482;77;21462;-79
2021/07/16 03:30:26;;;;;;;5.08;3.58;;;;;;;15.84;100.00;93117.70;1830327;77;21030;-79
2021/07/16 03:32:55;;;;;;;5.08;3.60;;;;;;;15.89;100.00;93115.02;1810361;76;21062;-82
2021/07/16 03:35:22;;;;;;;6.83;3.40;;;;;;;15.88;99.67;93116.99;1841434;77;21523;-79
2021/07/16 03:37:49;;;;;;;5.40;4.00;;;;;;;15.88;99.39;93118.97;1809946;77;21062;-80
2021/07/16 03:40:18;;;;;;;4.45;3.60;;;;;;;15.88;99.26;93118.97;1787499;79;21097;-80
2021/07/16 03:42:44;;;;;;;4.08;3.10;;;;;;;15.94;99.26;93121.32;1806064;76;20998;-79
2021/07/16 03:45:13;;;;;;;4.70;3.20;;;;;;;16.01;98.86;93117.00;1833836;77;21101;-80
2021/07/16 03:50:15;;;;;;;5.08;3.27;;;;;;;16.03;98.11;93108.52;1841206;77;21024;-81
2021/07/16 03:52:42;;;;;;;3.87;3.40;;;;;;;16.06;98.33;93110.20;1812285;77;21102;-81
2021/07/16 03:55:10;;;;;;;19.32;15.35;;;;;;;16.07;98.31;93103.53;1826702;76;21429;-79
2021/07/16 03:57:45;;;;;;;12.03;9.15;;;;;;;16.09;98.28;93102.48;1828531;77;21023;-79
2021/07/16 04:00:23;;;;;;;6.05;5.55;;;;;;;16.18;98.22;93102.61;1777675;80;21057;-81
2021/07/16 04:02:48;;;;;;;6.90;4.92;;;;;;;16.29;97.80;93102.28;1774063;79;21503;-79
2021/07/16 04:05:15;;;;;;;6.03;4.20;;;;;;;16.35;97.30;93101.28;1777791;80;21728;-78
2021/07/16 04:07:50;;;;;;;5.92;4.70;;;;;;;16.39;97.17;93093.70;1827522;76;20990;-81
2021/07/16 04:10:22;;;;;;;3.95;3.10;;;;;;;16.46;97.23;93095.46;1817418;77;21058;-81
2021/07/16 04:12:52;;;;;;;6.42;4.72;;;;;;;16.51;96.75;93103.13;1802815;77;21031;-81
2021/07/16 04:15:19;;;;;;;7.45;5.10;;;;;;;16.58;96.57;93100.16;1786608;77;21579;-81
2021/07/16 04:17:46;;;;;;;7.25;5.78;;;;;;;16.72;96.20;93108.55;1808794;78;21738;-81
2021/07/16 04:20:15;;;;;;;5.03;4.53;;;;;;;16.86;95.66;93110.11;1780484;79;21146;-82
2021/07/16 04:22:43;;;;;;;5.22;4.47;;;;;;;17.03;95.12;93115.60;1765094;79;21619;-81
2021/07/16 04:25:14;;;;;;;4.85;3.83;;;;;;;17.09;94.15;93113.84;1753264;80;21053;-82
2021/07/16 04:27:39;;;;;;;4.00;3.70;;;;;;;17.19;93.79;93116.08;1760117;79;21663;-79
2021/07/16 04:30:10;;;;;;;10.65;4.35;;;;;;;17.31;92.89;93117.24;1801687;76;21456;-82
2021/07/16 04:32:40;;;;;;;4.12;3.67;;;;;;;17.46;92.90;93118.28;1835104;76;21030;-82
2021/07/16 04:35:08;;;;;;;5.90;4.10;;;;;;;17.72;92.00;93116.19;1810953;76;21399;-81
2021/07/16 04:37:36;;;;;;;4.78;4.00;;;;;;;17.93;91.24;93118.78;1832178;76;21011;-82
2021/07/16 04:40:08;;;;;;;6.08;4.47;;;;;;;18.15;90.04;93114.63;1777613;77;21100;-86
2021/07/16 04:42:35;;;;;;;7.37;4.35;;;;;;;18.24;88.48;93122.95;1784334;78;21337;-81
2021/07/16 04:45:04;;;;;;;9.13;6.40;;;;;;;18.23;86.80;93137.14;1738871;80;21076;-82
2021/07/16 04:47:31;;;;;;;8.15;4.83;;;;;;;18.10;86.33;93141.36;1717793;82;21080;-81
2021/07/16 04:50:00;;;;;;;5.58;4.95;;;;;;;17.95;86.51;93150.75;1752100;79;21456;-82
2021/07/16 04:52:26;;;;;;;5.92;3.75;;;;;;;17.75;86.68;93150.25;1760002;80;21057;-82
2021/07/16 04:54:53;;;;;;;5.28;4.15;;;;;;;17.44;87.31;93140.70;1777032;78;21111;-80
2021/07/16 04:57:20;;;;;;;7.37;4.70;;;;;;;17.26;88.89;93139.16;1746529;79;21087;-82
2021/07/16 04:59:46;;;;;;;9.48;7.95;;;;;;;17.22;89.84;93140.66;1774512;79;21029;-82
2021/07/16 05:02:13;;;;;;;8.90;6.87;;;;;;;17.24;90.60;93142.98;1766852;79;21094;-82
2021/07/16 05:04:40;;;;;;;4.05;3.70;;;;;;;17.22;91.38;93146.15;1794659;78;21296;-82
2021/07/16 05:07:09;;;;;;;6.87;3.67;;;;;;;17.12;92.36;93141.03;1776810;79;21595;-81
2021/07/16 05:09:37;;;;;;;4.90;3.80;;;;;;;16.99;93.25;93131.44;1710743;80;21977;-82
2021/07/16 05:12:06;;;;;;;6.67;4.65;;;;;;;16.97;94.47;93132.50;1717607;81;21044;-81
2021/07/16 05:14:33;;;;;;;8.13;4.42;;;;;;;16.99;95.19;93137.69;1804587;77;21072;-81
2021/07/16 05:17:00;;;;;;;5.87;5.33;;;;;;;17.06;95.22;93146.92;1815349;77;21093;-80
2021/07/16 05:19:27;;;;;;;7.58;5.75;;;;;;;17.10;94.41;93136.58;1782332;78;22217;-80
2021/07/16 05:21:54;;;;;;;7.47;5.50;;;;;;;17.08;94.57;93131.54;1776370;78;21098;-81
2021/07/16 05:24:21;;;;;;;7.08;5.92;;;;;;;17.09;95.13;93124.06;1764620;79;21048;-82
2021/07/16 05:26:47;;;;;;;6.78;4.78;;;;;;;17.16;95.22;93134.81;1771215;79;21052;-78
2021/07/16 05:29:14;;;;;;;5.87;5.17;;;;;;;17.23;94.35;93138.70;1747020;80;21128;-79
2021/07/16 05:31:43;;;;;;;4.87;4.47;;;;;;;17.27;93.97;93139.95;1794352;77;21120;-78
2021/07/16 05:34:10;;;;;;;6.25;4.42;;;;;;;17.30;93.72;93143.16;1778274;78;21058;-79
2021/07/16 05:36:36;;;;;;;5.92;4.83;;;;;;;17.31;92.77;93139.98;1806217;76;21242;-79
2021/07/16 05:39:05;;;;;;;6.53;5.42;;;;;;;17.32;92.70;93134.64;1864621;74;21051;-78
2021/07/16 05:41:32;;;;;;;7.78;4.90;;;;;;;17.33;92.81;93132.66;1729105;77;21050;-78
2021/07/16 05:43:59;;;;;;;6.55;4.90;;;;;;;17.37;92.57;93130.56;1743833;80;21371;-80
2021/07/16 05:46:29;;;;;;;7.30;4.95;;;;;;;17.37;92.38;93127.20;1809516;76;21075;-79
2021/07/16 05:48:55;;;;;;;6.78;5.40;;;;;;;17.40;92.58;93125.55;1835514;76;21060;-79
2021/07/16 05:51:24;;;;;;;8.38;5.75;;;;;;;17.48;93.48;93124.09;1747905;79;21108;-79
2021/07/16 05:53:50;;;;;;;5.90;4.20;;;;;;;17.54;93.29;93119.56;1807426;77;21068;-79
2021/07/16 05:56:18;;;;;;;7.03;5.50;;;;;;;17.58;93.46;93120.20;1795465;77;21111;-80
2021/07/16 05:58:47;;;;;;;4.97;4.28;;;;;;;17.61;93.08;93105.57;1774089;77;21132;-81
2021/07/16 06:01:13;;;;;;;6.20;4.25;;;;;;;17.66;92.85;93109.72;1770827;79;21053;-81
2021/07/16 06:03:43;;;;;;;4.47;4.08;;;;;;;17.73;92.46;93109.47;1756970;79;21639;-79
2021/07/16 06:06:12;;;;;;;4.75;4.30;;;;;;;17.79;91.77;93117.92;1776247;79;21064;-80
2021/07/16 06:08:39;;;;;;;4.85;4.40;;;;;;;17.87;91.68;93113.11;1838379;76;21255;-81
2021/07/16 06:11:08;;;;;;;5.92;4.00;;;;;;;18.04;91.30;93106.77;1785884;77;21074;-82
2021/07/16 06:13:39;;;;;;;5.30;4.05;;;;;;;18.18;90.15;93112.36;1775713;79;21072;-82
2021/07/16 06:16:08;;;;;;;4.75;4.15;;;;;;;18.34;89.66;93108.61;1777564;79;21058;-81
2021/07/16 06:18:37;;;;;;;4.28;3.98;;;;;;;18.63;90.04;93106.89;1778533;79;20998;-80
2021/07/16 06:21:08;;;;;;;5.17;3.50;;;;;;;19.01;89.45;93108.55;1783837;79;21552;-80
2021/07/16 06:23:37;;;;;;;5.47;4.17;;;;;;;19.31;83.05;93102.77;1779111;79;20977;-81
2021/07/16 06:26:03;;;;;;;7.00;4.33;;;;;;;19.53;85.72;93108.91;1814401;76;21033;-79
2021/07/16 06:28:32;;;;;;;4.10;3.67;;;;;;;19.83;86.28;93095.44;1791240;77;21394;-80
2021/07/16 06:31:03;;;;;;;5.30;3.67;;;;;;;20.10;81.99;93085.71;1771723;79;21710;-79
2021/07/16 06:33:30;;;;;;;7.70;4.00;;;;;;;20.32;83.09;93086.12;1770717;79;21079;-80
2021/07/16 06:36:08;;;;;;;4.30;3.90;;;;;;;20.54;81.37;93085.91;1812850;76;21584;-79
2021/07/16 06:38:38;;;;;;;4.12;3.70;;;;;;;20.73;80.91;93081.06;1774355;77;21060;-79
2021/07/16 06:41:10;;;;;;;7.17;4.12;;;;;;;20.97;80.18;93078.31;1791515;77;21032;-79
2021/07/16 06:43:41;;;;;;;7.03;4.03;;;;;;;21.09;77.93;93065.63;1785261;77;21022;-79
2021/07/16 06:46:13;;;;;;;4.92;3.95;;;;;;;21.19;77.60;93064.20;1741249;80;21558;-78
2021/07/16 06:48:45;;;;;;;4.33;3.92;;;;;;;21.28;77.19;93052.44;1735160;80;21010;-79
2021/07/16 06:51:15;;;;;;;5.05;4.00;;;;;;;21.40;76.25;93062.38;1811150;77;21049;-81
2021/07/16 06:53:46;;;;;;;8.30;4.10;;;;;;;21.48;76.19;93064.94;1781152;77;21022;-80
2021/07/16 06:56:12;;;;;;;14.33;5.22;;;;;;;21.56;75.38;93065.48;1776101;79;20986;-83
2021/07/16 06:58:38;;;;;;;4.53;4.12;;;;;;;21.63;74.52;93058.05;1766689;79;21701;-83
2021/07/16 07:01:05;;;;;;;6.95;4.12;;;;;;;21.61;72.80;93052.98;1749482;77;21082;-81
2021/07/16 07:03:35;;;;;;;6.03;5.42;;;;;;;21.53;72.36;93051.20;1809705;77;21111;-82
2021/07/16 07:06:04;;;;;;;5.83;4.40;;;;;;;21.44;72.72;93046.36;1770422;77;21135;-81
2021/07/16 07:08:31;;;;;;;7.75;5.90;;;;;;;21.34;72.92;93042.92;1729360;80;20968;-82
2021/07/16 07:11:01;;;;;;;16.07;7.17;;;;;;;21.23;74.18;93037.90;1751705;80;21090;-84
2021/07/16 07:13:30;;;;;;;9.60;7.00;;;;;;;21.18;74.83;93033.66;1789182;78;22264;-81
2021/07/16 07:15:57;;;;;;;7.53;6.65;;;;;;;21.09;75.49;93033.84;1778634;75;21120;-82
2021/07/16 07:18:28;;;;;;;8.43;5.58;;;;;;;21.05;76.53;93032.50;1837944;76;21108;-83
2021/07/16 07:20:56;;;;;;;8.53;5.90;;;;;;;21.00;76.76;93031.78;1746326;80;21279;-81
2021/07/16 07:23:26;;;;;;;5.78;4.85;;;;;;;20.93;76.99;93030.12;1838571;76;21171;-82
2021/07/16 07:25:59;;;;;;;5.60;4.87;;;;;;;20.89;77.40;93028.16;1824996;76;21505;-81
2021/07/16 07:28:26;;;;;;;6.90;5.00;;;;;;;20.89;76.96;93030.92;1756228;79;21045;-81
2021/07/16 07:33:43;;;;;;;7.90;5.17;;;;;;;20.93;77.60;93035.66;1772576;76;21116;-80
2021/07/16 07:36:13;;;;;;;6.47;4.85;;;;;;;20.98;78.09;93035.62;1782157;77;21132;-82
2021/07/16 07:38:41;;;;;;;6.03;5.42;;;;;;;21.04;77.78;93035.89;1802365;77;21069;-80
2021/07/16 07:41:18;;;;;;;6.65;5.42;;;;;;;21.16;76.72;93033.34;1766747;79;21039;-80
2021/07/16 07:43:44;;;;;;;6.30;5.50;;;;;;;21.28;77.08;93026.80;1779516;79;21084;-81
2021/07/16 07:46:13;;;;;;;6.97;5.30;;;;;;;21.43;76.66;93025.48;1778690;79;21036;-81
2021/07/16 07:48:40;;;;;;;5.40;4.90;;;;;;;21.56;75.65;93032.28;1769210;78;21670;-82
2021/07/16 07:54:28;;;;;;;6.12;5.37;;;;;;;21.81;75.91;93026.04;1817396;75;21561;-83
2021/07/16 07:57:02;;;;;;;8.78;7.90;;;;;;;21.88;75.14;93020.75;1791232;77;21006;-83
2021/07/16 07:59:37;;;;;;;15.72;7.75;;;;;;;21.92;74.71;93029.00;1786533;78;21010;-82
2021/07/16 08:02:18;;;;;;;8.65;6.22;;;;;;;21.94;74.54;93030.69;1820704;76;21249;-84
2021/07/16 08:15:21;;;;;;;9.30;5.87;;;;;;;22.26;75.68;93036.50;1850804;75;21071;-81
2021/07/16 08:17:48;;;;;;;7.42;5.33;;;;;;;22.30;75.79;93035.09;1719163;80;21286;-81
2021/07/16 08:20:17;;;;;;;20.05;7.08;;;;;;;22.35;75.51;93035.66;1802147;77;21024;-81
2021/07/16 08:22:52;;;;;;;9.00;6.08;;;;;;;22.37;74.77;93033.91;1802311;77;21063;-84
2021/07/16 08:25:18;;;;;;;7.80;5.50;;;;;;;22.40;74.58;93034.97;1817995;76;21013;-84
2021/07/16 08:27:52;;;;;;;8.18;6.12;;;;;;;22.44;74.86;93043.22;1757692;79;22187;-83
2021/07/16 08:30:19;;;;;;;11.60;6.28;;;;;;;22.52;74.59;93039.42;1753394;79;21079;-82
2021/07/16 08:32:52;;;;;;;8.18;6.72;;;;;;;22.65;74.55;93041.89;1747991;80;21061;-83
2021/07/16 08:35:23;;;;;;;9.00;6.92;;;;;;;22.79;76.13;93040.47;1790567;78;21511;-84
2021/07/16 08:37:59;;;;;;;9.58;7.47;;;;;;;23.00;75.55;93043.28;1816063;77;21110;-82
2021/07/16 08:47:40;;;;;;;10.45;6.58;;;;;;;23.39;71.33;93040.98;1800529;77;21002;-80
2021/07/16 08:50:10;;;;;;;8.03;6.47;;;;;;;23.44;71.83;93036.14;1802317;77;21037;-83
2021/07/16 08:52:40;;;;;;;11.85;6.40;;;;;;;23.43;71.09;93040.17;1781153;77;20998;-82
2021/07/16 08:55:17;;;;;;;7.45;6.58;;;;;;;23.43;70.57;93042.95;1812948;77;21061;-79
2021/07/16 08:57:55;;;;;;;;;;;;;;;;;;;;;
2021/07/16 09:00:20;;;;;;;9.83;7.08;;;;;;;23.40;70.54;93042.53;1777568;77;21055;-82
2021/07/16 09:02:56;;;;;;;8.53;6.42;;;;;;;23.40;70.18;93037.61;1799518;77;21080;-80
2021/07/16 09:05:46;;;;;;;11.10;6.58;;;;;;;23.41;70.23;93041.90;1767720;79;21072;-80
2021/07/16 09:08:27;;;;;;;8.65;6.75;;;;;;;23.42;70.32;93042.03;1781402;77;21011;-81
2021/07/16 09:14:27;;;;;;;10.80;7.50;;;;;;;23.48;69.91;93047.03;1784233;77;21970;-81
2021/07/16 09:17:14;;;;;;;9.38;7.28;;;;;;;23.53;69.97;93046.32;1774245;79;21116;-82
2021/07/16 09:19:56;;;;;;;9.45;6.67;;;;;;;23.56;69.57;93039.80;1793976;77;21044;-81
2021/07/16 09:22:25;;;;;;;12.37;6.95;;;;;;;23.57;69.00;93046.11;1735868;80;21112;-81
2021/07/16 09:27:46;;;;;;;11.83;6.78;;;;;;;23.58;69.19;93049.02;1800209;77;21518;-78
2021/07/16 09:30:23;;;;;;;9.28;7.10;;;;;;;23.66;67.93;93045.38;1812843;76;21100;-80
2021/07/16 09:33:10;;;;;;;13.50;7.12;;;;;;;23.76;66.78;93045.97;1806802;77;21083;-78
2021/07/16 09:35:44;;;;;;;9.70;7.78;;;;;;;23.85;66.68;93041.66;1804632;76;21395;-81
2021/07/16 09:38:20;;;;;;;10.55;7.72;;;;;;;23.96;66.44;93043.16;1811161;77;21131;-81
2021/07/16 10:04:21;;;;;;;12.43;8.25;;;;;;;24.38;63.07;93054.88;1808049;77;23085;-81
2021/07/16 10:06:55;;;;;;;11.57;8.03;;;;;;;24.44;65.43;93048.13;1701084;80;21144;-81
2021/07/16 10:09:41;;;;;;;;;;;;;;;;;;;;;
2021/07/16 10:12:02;;;;;;;10.28;8.15;;;;;;;24.56;62.29;93048.20;1744584;79;21009;-82
2021/07/16 10:14:32;;;;;;;9.13;8.23;;;;;;;24.60;61.88;93048.13;1740884;79;21523;-81
2021/07/16 10:23:28;;;;;;;8.90;7.25;;;;;;;24.82;59.58;93043.96;1744419;80;21142;-80
2021/07/16 10:25:54;;;;;;;8.88;8.00;;;;;;;24.90;59.50;93043.66;1715575;80;21100;-81
2021/07/16 10:28:44;;;;;;;11.95;8.48;;;;;;;24.98;59.77;93046.73;1727124;80;21085;-85
2021/07/16 10:31:39;;;;;;;9.35;8.50;;;;;;;25.04;59.40;93051.05;1735153;80;21022;-79
2021/07/16 10:34:33;;;;;;;9.53;7.87;;;;;;;25.10;59.88;93043.53;1734047;80;21137;-83
2021/07/16 10:37:09;;;;;;;16.37;8.95;;;;;;;25.11;59.89;93040.88;1703421;81;21125;-80
2021/07/16 10:39:52;;;;;;;10.80;8.48;;;;;;;25.10;59.87;93038.60;1775454;77;20998;-81
2021/07/16 10:42:36;;;;;;;13.08;8.80;;;;;;;25.06;59.51;93037.41;1803675;77;21151;-84
2021/07/16 10:45:07;;;;;;;11.95;9.60;;;;;;;24.99;60.73;93043.44;1758314;78;21015;-84
2021/07/16 10:47:52;;;;;;;10.35;8.10;;;;;;;24.93;61.67;93046.17;1813987;77;21001;-80
2021/07/16 10:50:38;;;;;;;11.22;8.18;;;;;;;24.92;61.87;93043.27;1788947;77;21092;-81
2021/07/16 10:53:19;;;;;;;8.53;7.75;;;;;;;24.99;61.98;93046.86;1807777;77;21497;-80
2021/07/16 10:56:01;;;;;;;12.25;7.62;;;;;;;25.06;62.28;93044.38;1759197;78;21146;-79
2021/07/16 10:59:02;;;;;;;13.60;8.40;;;;;;;25.16;62.18;93047.72;1792680;78;21001;-78
2021/07/16 11:01:48;;;;;;;11.48;8.00;;;;;;;25.26;62.69;93051.83;1775484;77;20993;-80
2021/07/16 11:04:46;;;;;;;11.85;7.17;;;;;;;25.33;61.30;93044.39;1786550;77;21010;-83
2021/07/16 11:07:37;;;;;;;13.88;7.75;;;;;;;25.39;62.03;93038.23;1733402;77;22256;-80
2021/07/16 11:10:07;;;;;;;12.85;7.03;;;;;;;25.46;61.76;93042.54;1789053;76;21108;-78
2021/07/16 11:12:38;;;;;;;13.43;7.05;;;;;;;25.56;60.48;93045.88;1718178;79;21105;-82
2021/07/16 11:15:13;;;;;;;12.58;6.72;;;;;;;25.59;58.71;93047.03;1819610;77;21051;-78
2021/07/16 11:17:59;;;;;;;11.85;7.25;;;;;;;25.60;58.51;93054.75;1727681;81;21063;-80
2021/07/16 11:20:31;;;;;;;10.13;6.67;;;;;;;25.57;57.10;93050.93;1763799;79;21125;-79
2021/07/16 11:23:06;;;;;;;8.25;6.80;;;;;;;25.47;56.50;93039.91;1730811;79;21501;-80
2021/07/16 11:25:46;;;;;;;8.68;6.33;;;;;;;25.40;56.17;93032.03;1723819;80;21056;-79
2021/07/16 11:28:16;;;;;;;8.98;7.30;;;;;;;25.28;55.29;93027.06;1731504;80;21162;-80
2021/07/16 11:30:44;;;;;;;10.05;6.10;;;;;;;25.19;55.67;93037.75;1758561;79;21091;-80
2021/07/16 11:33:11;;;;;;;9.35;6.55;;;;;;;25.07;56.85;93037.54;1755874;79;21075;-80
2021/07/16 11:35:41;;;;;;;9.55;6.20;;;;;;;24.96;56.41;93039.63;1771453;79;21206;-81
2021/07/16 11:38:07;;;;;;;10.28;6.33;;;;;;;24.87;56.24;93044.64;1772113;79;21041;-79
2021/07/16 11:40:37;;;;;;;6.87;6.28;;;;;;;24.77;56.76;93041.91;1754548;79;21115;-79
2021/07/16 11:43:17;;;;;;;8.43;5.53;;;;;;;24.67;57.41;93046.89;1727065;80;21124;-79
2021/07/16 11:45:44;;;;;;;9.78;5.72;;;;;;;24.57;57.46;93051.14;1745110;80;21058;-80
2021/07/16 11:51:09;;;;;;;8.23;6.47;;;;;;;24.38;58.12;93072.31;1747800;80;21086;-81
2021/07/16 11:53:39;;;;;;;9.43;6.33;;;;;;;24.31;59.42;93073.37;1748586;80;22271;-81
2021/07/16 11:56:15;;;;;;;7.30;5.80;;;;;;;24.25;59.74;93073.31;1750437;80;21064;-81
2021/07/16 11:58:50;;;;;;;8.83;6.78;;;;;;;24.21;60.91;93070.00;1808273;77;21584;-82
2021/07/16 12:01:17;;;;;;;8.13;6.28;;;;;;;24.16;61.89;93069.33;1790910;77;21137;-79
2021/07/16 12:03:51;;;;;;;8.43;7.37;;;;;;;24.11;60.83;93070.02;1775874;78;21076;-81
2021/07/16 12:12:04;;;;;;;23.22;15.38;;;;;;;23.95;63.44;93067.98;1771542;79;21079;-82
2021/07/16 12:14:58;;;;;;;22.13;14.45;;;;;;;23.88;61.53;93064.87;1707738;82;21088;-81
2021/07/16 12:17:30;;;;;;;14.95;9.08;;;;;;;23.84;61.98;93068.50;1798072;77;21099;-81
2021/07/16 12:19:58;;;;;;;16.17;8.55;;;;;;;23.80;62.88;93069.34;1808405;77;21320;-82
2021/07/16 12:22:33;;;;;;;10.80;6.97;;;;;;;23.75;62.81;93076.37;1772749;78;21066;-82
2021/07/16 12:25:05;;;;;;;9.65;6.70;;;;;;;23.70;63.80;93079.86;1781650;77;21085;-82
2021/07/16 12:27:32;;;;;;;17.65;7.60;;;;;;;23.64;63.24;93072.05;1811302;77;21140;-82
2021/07/16 12:30:18;;;;;;;9.35;6.05;;;;;;;23.59;63.69;93067.97;1784947;77;21152;-81
2021/07/16 12:32:48;;;;;;;8.33;6.70;;;;;;;23.53;63.25;93064.36;1814931;77;21609;-81
2021/07/16 12:35:21;;;;;;;8.55;6.12;;;;;;;23.47;63.01;93057.37;1773723;77;21084;-82
2021/07/16 12:37:51;;;;;;;12.03;7.12;;;;;;;23.43;63.40;93061.58;1782387;77;21624;-82
2021/07/16 12:40:24;;;;;;;8.58;7.15;;;;;;;23.39;63.81;93061.03;1808494;77;21005;-81
2021/07/16 12:43:10;;;;;;;9.23;7.70;;;;;;;23.35;64.46;93064.64;1805802;77;21083;-82
2021/07/16 12:45:57;;;;;;;13.28;7.65;;;;;;;23.32;64.55;93062.23;1745009;80;21697;-83
2021/07/16 12:48:33;;;;;;;15.50;8.95;;;;;;;23.33;66.49;93070.69;1747490;80;21028;-84
2021/07/16 12:51:14;;;;;;;11.85;7.87;;;;;;;23.33;67.70;93072.08;1739247;80;21087;-82
2021/07/16 12:53:55;;;;;;;16.70;7.85;;;;;;;23.36;68.13;93068.33;1743906;80;21057;-82
2021/07/16 12:56:38;;;;;;;9.80;6.55;;;;;;;23.40;68.30;93068.88;1749647;79;21096;-82
2021/07/16 13:02:21;;;;;;;10.23;6.92;;;;;;;23.58;68.80;93066.42;1762812;79;21116;-81
2021/07/16 13:04:50;;;;;;;12.18;8.78;;;;;;;23.68;67.95;93058.13;1749172;79;21044;-82
2021/07/16 13:07:31;;;;;;;10.28;6.80;;;;;;;23.76;67.83;93055.68;1775087;78;21025;-81